Portada
METAR-TAF:

METAR-TAF

Aeropuertos :

Tenerife, España

Aeropuerto de Tenerife Norte

latitud: 28-28N, longitud: 016-19W, altitud: 632 m

Observación

El informe se hizo hace 40 minutos, a las 08:00 UTC
Viento 9 kt del noroeste, variando entre oeste-noroeste y norte
Temperatura 15°C
Humedad 82%
Presión 1020 hPa
Visibilidad 10 km o más
Nubes dispersas a una altura de 1200 ft

METAR: GCXO 170800Z 32009KT 290V350 9999 SCT012 15/12 Q1020 NOSIG

Hora: 09:40 (08:40 UTC)

Pronóstico

El informe se hizo hace 40 minutos, a las 08:00 UTC
Pronóstico válido del 17 a las 09 UTC al 18 a las 09 UTC
Viento 15 kt del noroeste
Visibilidad 10 km o más
Cielo nuboso a una altura de 2000 ft

TAF: GCXO 170800Z 1709/1809 32015KT 9999 BKN020 TX19/1714Z TN13/1806Z

Observaciones y pronósticos meteorológicos de más de 4000 aeropuertos (mensajes METAR y TAF).

Los puntos amarillos y rojos representan las estaciones disponibles.

Ponga el ratón en el punto deseado para ver el nombre de la estación.

Haga clic para ver las observaciones y los pronósticos meteorológicos.

Para cambiar el mapa : haga clic en los botones verdes con una cruz de color negro para hacer un zoom, en el botón verde con un guión para alejar o en las flechas verdes para mapas adyacentes.


METAR-TAF: